Miguel Oliver — ECLX — position and weather

sailwx.info

Track history (hours):
 
Tides and Currents Weather Stations Pressure Air Temp Water Temp Dewpoint Dewpoint Depression Visibility Wind Speed Wind Dir Waves Ship Positions

Oceanographic research ship Miguel Oliver (Spain)

Ship's website: http://www.mapa.es/es/pesca/pags/miguel_web/index.htm

Last reported at 2014-Aug-08 00:22 UTC. Time now 2014-Sep-22 02:11 UTC.
Position N 36°54' W 009°18'.
Warning: this ship's position is 45 days out of date.

Length 70 m; draft 6 m.

Type: Other ship. MMSI: 225322000.

Date/timePositionNaut miles runAvg speedWind from/ knotsBaromVisibWave heightAir tempDewpointWater temp
2014-Aug-08 00:22N 36°54' W 009°18'910.4
2014-Aug-07 23:32N 36°47' W 009°12'2110.4
2014-Aug-07 21:31N 36°41' W 008°47'1110.7
2014-Aug-07 20:31N 36°41' W 008°34'1110.9
2014-Aug-07 19:32N 36°40' W 008°20'1010.8
2014-Aug-07 18:34N 36°40' W 008°07'  
2014-Aug-02 06:33N 36°59' W 008°06'3 3.4
2014-Aug-02 05:33N 36°58' W 008°02'10 9.9
2014-Aug-02 04:32N 36°53' W 007°52'2 0.2
2014-Aug-01 15:13N 36°52' W 007°54'2 3.3
2014-Aug-01 14:33N 36°54' W 007°55'20 2.0
2014-Aug-01 04:32N 36°42' W 007°35'10 4.9
2014-Aug-01 02:31N 36°32' W 007°33'1 0.9
2014-Aug-01 01:33N 36°33' W 007°33'8 3.9
2014-Jul-31 23:21N 36°41' W 007°30'7 5.4
2014-Jul-31 22:03N 36°48' W 007°28'9 2.5
2014-Jul-31 18:30N 36°56' W 007°26'7 0.7
2014-Jul-31 08:31N 36°55' W 007°17'9 9.1
2014-Jul-31 07:33N 37°04' W 007°17'3 2.7
2014-Jul-31 06:29N 37°07' W 007°16'10 3.0
2014-Jul-31 03:11N 37°00' W 007°25'13 6.3
2014-Jul-31 01:12N 36°49' W 007°18'1 1.7
2014-Jul-31 00:33N 36°50' W 007°18'2 1.9
2014-Jul-30 23:29N 36°51' W 007°17'3 2.9
2014-Jul-30 22:33N 36°53' W 007°14'11 9.3
2014-Jul-30 21:19N 36°54' W 006°60'2 2.5
2014-Jul-30 20:33N 36°52' W 007°01'4 4.5
2014-Jul-30 19:33N 36°50' W 007°06'9 7.9
2014-Jul-30 18:28N 36°54' W 007°15'3 3.2
2014-Jul-30 17:32N 36°57' W 007°14'10 1.0
2014-Jul-30 07:14N 36°57' W 007°01'12 3.2
2014-Jul-30 03:33N 36°47' W 007°09'12 9.8
2014-Jul-30 02:17N 36°36' W 007°17'8 9.6
2014-Jul-30 01:27N 36°29' W 007°21'6 4.5
2014-Jul-30 00:08N 36°23' W 007°23'2 3.8
2014-Jul-29 23:33N 36°25' W 007°22'2 2.1
2014-Jul-29 22:33N 36°27' W 007°21'2 2.5
2014-Jul-29 21:33N 36°29' W 007°19'7 6.9
2014-Jul-29 20:33N 36°35' W 007°15'5 5.0
2014-Jul-29 19:33N 36°40' W 007°12'4 4.4
2014-Jul-29 18:33N 36°44' W 007°10'4 2.9
2014-Jul-29 17:09N 36°47' W 007°06'  
Track history (hours):
 
Tides and Currents Weather Stations Pressure Air Temp Water Temp Dewpoint Dewpoint Depression Visibility Wind Speed Wind Dir Waves Ship Positions

Oceanographic research ship Miguel Oliver (Spain)

Ship's website: http://www.mapa.es/es/pesca/pags/miguel_web/index.htm

Last reported at 2014-Aug-08 00:22 UTC. Time now 2014-Sep-22 02:11 UTC.
Position N 36°54' W 009°18'.
Warning: this ship's position is 45 days out of date.

Length 70 m; draft 6 m.

Type: Other ship. MMSI: 225322000.

Date/timePositionNaut miles runAvg speedWind from/ knotsBaromVisibWave heightAir tempDewpointWater temp
2014-Aug-08 00:22N 36°54' W 009°18'910.4
2014-Aug-07 23:32N 36°47' W 009°12'2110.4
2014-Aug-07 21:31N 36°41' W 008°47'1110.7
2014-Aug-07 20:31N 36°41' W 008°34'1110.9
2014-Aug-07 19:32N 36°40' W 008°20'1010.8
2014-Aug-07 18:34N 36°40' W 008°07'  
2014-Aug-02 06:33N 36°59' W 008°06'3 3.4
2014-Aug-02 05:33N 36°58' W 008°02'10 9.9
2014-Aug-02 04:32N 36°53' W 007°52'2 0.2
2014-Aug-01 15:13N 36°52' W 007°54'2 3.3
2014-Aug-01 14:33N 36°54' W 007°55'20 2.0
2014-Aug-01 04:32N 36°42' W 007°35'10 4.9
2014-Aug-01 02:31N 36°32' W 007°33'1 0.9
2014-Aug-01 01:33N 36°33' W 007°33'8 3.9
2014-Jul-31 23:21N 36°41' W 007°30'7 5.4
2014-Jul-31 22:03N 36°48' W 007°28'9 2.5
2014-Jul-31 18:30N 36°56' W 007°26'7 0.7
2014-Jul-31 08:31N 36°55' W 007°17'9 9.1
2014-Jul-31 07:33N 37°04' W 007°17'3 2.7
2014-Jul-31 06:29N 37°07' W 007°16'10 3.0
2014-Jul-31 03:11N 37°00' W 007°25'13 6.3
2014-Jul-31 01:12N 36°49' W 007°18'1 1.7
2014-Jul-31 00:33N 36°50' W 007°18'2 1.9
2014-Jul-30 23:29N 36°51' W 007°17'3 2.9
2014-Jul-30 22:33N 36°53' W 007°14'11 9.3
2014-Jul-30 21:19N 36°54' W 006°60'2 2.5
2014-Jul-30 20:33N 36°52' W 007°01'4 4.5
2014-Jul-30 19:33N 36°50' W 007°06'9 7.9
2014-Jul-30 18:28N 36°54' W 007°15'3 3.2
2014-Jul-30 17:32N 36°57' W 007°14'10 1.0
2014-Jul-30 07:14N 36°57' W 007°01'12 3.2
2014-Jul-30 03:33N 36°47' W 007°09'12 9.8
2014-Jul-30 02:17N 36°36' W 007°17'8 9.6
2014-Jul-30 01:27N 36°29' W 007°21'6 4.5
2014-Jul-30 00:08N 36°23' W 007°23'2 3.8
2014-Jul-29 23:33N 36°25' W 007°22'2 2.1
2014-Jul-29 22:33N 36°27' W 007°21'2 2.5
2014-Jul-29 21:33N 36°29' W 007°19'7 6.9
2014-Jul-29 20:33N 36°35' W 007°15'5 5.0
2014-Jul-29 19:33N 36°40' W 007°12'4 4.4
2014-Jul-29 18:33N 36°44' W 007°10'4 2.9
2014-Jul-29 17:09N 36°47' W 007°06'  

Dump ship's entire track history